Time;durP1;ratioP1;P1;durP2;ratioP2;P2;SDS_P1;SDS_P2;PMS_P1;PMS_P2;Temp;Humidity;BMP_temperature;BMP_pressure;BME280_temperature;BME280_humidity;BME280_pressure;Samples;Min_cycle;Max_cycle;Signal;HPM_P1;HPM_P2
2021/12/07 00:01:55;;;;;;;28.02;22.38;;;;;;;;;;5006625;28;20133;-61
2021/12/07 00:04:21;;;;;;;29.25;22.98;;;;;;;;;;5006548;28;20065;-63
2021/12/07 00:06:47;;;;;;;32.90;24.10;;;;;;;;;;4989985;28;20121;-63
2021/12/07 00:09:16;;;;;;;30.40;23.45;;;;;;;;;;5005798;28;20575;-64
2021/12/07 00:11:43;;;;;;;31.77;23.67;;;;;;;;;;5005765;28;20126;-63
2021/12/07 00:14:14;;;;;;;36.00;24.42;;;;;;;;;;4974011;28;20117;-64
2021/12/07 00:16:44;;;;;;;32.85;26.38;;;;;;;;;;5024316;28;20054;-64
2021/12/07 00:19:11;;;;;;;29.55;22.27;;;;;;;;;;5009772;28;20041;-63
2021/12/07 00:21:38;;;;;;;30.23;22.10;;;;;;;;;;5011096;28;20063;-63
2021/12/07 00:24:05;;;;;;;30.30;22.77;;;;;;;;;;4992937;28;20041;-63
2021/12/07 00:26:31;;;;;;;37.67;26.80;;;;;;;;;;5009465;28;20056;-62
2021/12/07 00:28:59;;;;;;;31.58;25.65;;;;;;;;;;5019032;28;20483;-62
2021/12/07 00:31:35;;;;;;;30.73;23.92;;;;;;;;;;5009640;28;20125;-62
2021/12/07 00:36:33;;;;;;;32.60;25.10;;;;;;;;;;5012782;28;20057;-61
2021/12/07 00:38:59;;;;;;;33.92;24.50;;;;;;;;;;5009503;28;20042;-61
2021/12/07 00:41:26;;;;;;;34.83;25.85;;;;;;;;;;5016433;28;20038;-62
2021/12/07 00:43:52;;;;;;;37.45;27.52;;;;;;;;;;5014612;28;20048;-62
2021/12/07 00:46:19;;;;;;;31.92;23.90;;;;;;;;;;5009989;28;20169;-61
2021/12/07 00:48:45;;;;;;;34.58;25.40;;;;;;;;;;5010280;28;20058;-62
2021/12/07 00:51:11;;;;;;;36.90;26.67;;;;;;;;;;5009849;28;20036;-62
2021/12/07 00:53:38;;;;;;;39.53;27.63;;;;;;;;;;5008786;28;20252;-61
2021/12/07 00:56:05;;;;;;;33.75;24.25;;;;;;;;;;5009991;28;20399;-61
2021/12/07 00:58:32;;;;;;;38.55;27.25;;;;;;;;;;5008201;28;20156;-61
2021/12/07 01:01:00;;;;;;;41.53;30.50;;;;;;;;;;5008781;28;20188;-61
2021/12/07 01:03:27;;;;;;;40.95;29.80;;;;;;;;;;5015368;28;20125;-62
2021/12/07 01:06:04;;;;;;;40.35;28.60;;;;;;;;;;5018789;28;20042;-62
2021/12/07 01:25:00;;;;;;;35.85;25.58;;;;;;;;;;5008759;28;20045;-64
2021/12/07 01:27:27;;;;;;;43.17;30.10;;;;;;;;;;5018290;28;20041;-63
2021/12/07 01:30:09;;;;;;;39.55;26.85;;;;;;;;;;5008964;28;20083;-63
2021/12/07 01:35:36;;;;;;;36.40;24.50;;;;;;;;;;5006302;28;20033;-64
2021/12/07 01:40:35;;;;;;;37.30;26.75;;;;;;;;;;5008562;28;20591;-63
2021/12/07 01:46:22;;;;;;;43.30;29.30;;;;;;;;;;5007721;28;20052;-62
2021/12/07 01:59:37;;;;;;;44.40;29.20;;;;;;;;;;5007654;28;20503;-62
2021/12/07 02:02:09;;;;;;;35.10;23.23;;;;;;;;;;5006776;28;20077;-62
2021/12/07 02:04:36;;;;;;;48.60;31.10;;;;;;;;;;5023270;28;20096;-62
2021/12/07 02:07:02;;;;;;;51.13;31.38;;;;;;;;;;5007878;28;20041;-63
2021/12/07 02:09:29;;;;;;;42.90;27.65;;;;;;;;;;5007723;28;20044;-61
2021/12/07 02:11:59;;;;;;;55.05;32.72;;;;;;;;;;5008101;28;20515;-62
2021/12/07 02:14:26;;;;;;;44.65;26.52;;;;;;;;;;5008555;28;20038;-63
2021/12/07 02:16:57;;;;;;;46.67;27.77;;;;;;;;;;4991543;28;20057;-63
2021/12/07 02:19:24;;;;;;;50.45;29.98;;;;;;;;;;5007603;28;20050;-62
2021/12/07 02:21:50;;;;;;;44.65;27.33;;;;;;;;;;5008806;28;20038;-62
2021/12/07 02:24:17;;;;;;;46.30;27.10;;;;;;;;;;5008757;28;20446;-62
2021/12/07 02:26:43;;;;;;;50.88;27.33;;;;;;;;;;4990820;28;20030;-61
2021/12/07 02:29:09;;;;;;;68.38;35.40;;;;;;;;;;5007485;28;20041;-61
2021/12/07 02:31:36;;;;;;;59.85;33.03;;;;;;;;;;5007418;28;20125;-62
2021/12/07 02:34:03;;;;;;;46.97;26.67;;;;;;;;;;4991096;28;20048;-61
2021/12/07 02:36:29;;;;;;;49.38;27.73;;;;;;;;;;5007438;28;20053;-61
2021/12/07 02:38:55;;;;;;;50.00;28.75;;;;;;;;;;5006594;28;20084;-61
2021/12/07 02:41:21;;;;;;;57.40;31.98;;;;;;;;;;5006781;28;20042;-61
2021/12/07 02:43:48;;;;;;;56.22;30.73;;;;;;;;;;4990917;28;20046;-61
2021/12/07 02:46:14;;;;;;;67.80;35.92;;;;;;;;;;5008408;28;20129;-61
2021/12/07 02:48:40;;;;;;;62.60;33.20;;;;;;;;;;4990648;28;20511;-61
2021/12/07 02:51:06;;;;;;;66.28;35.80;;;;;;;;;;4991152;28;20400;-62
2021/12/07 02:53:34;;;;;;;58.85;31.08;;;;;;;;;;5010685;28;20499;-61
2021/12/07 02:56:01;;;;;;;59.13;32.22;;;;;;;;;;5008705;28;20050;-61
2021/12/07 02:58:27;;;;;;;66.40;34.72;;;;;;;;;;5003485;28;20593;-61
2021/12/07 03:01:06;;;;;;;53.00;27.40;;;;;;;;;;5006730;28;20056;-61
2021/12/07 03:03:37;;;;;;;66.80;34.30;;;;;;;;;;5006227;28;20038;-61
2021/12/07 03:06:18;;;;;;;65.43;33.88;;;;;;;;;;5007062;28;20045;-62
2021/12/07 03:28:08;;;;;;;64.00;32.67;;;;;;;;;;5020798;28;20073;-62
2021/12/07 03:30:34;;;;;;;64.75;34.08;;;;;;;;;;4990280;28;20065;-63
2021/12/07 03:33:02;;;;;;;58.33;32.67;;;;;;;;;;5006798;28;20034;-62
2021/12/07 03:35:29;;;;;;;58.08;30.38;;;;;;;;;;5006316;28;20042;-62
2021/12/07 03:37:55;;;;;;;58.08;33.72;;;;;;;;;;5006592;28;20518;-63
2021/12/07 03:40:22;;;;;;;55.63;29.55;;;;;;;;;;5006237;28;20050;-63
2021/12/07 03:42:48;;;;;;;54.25;30.83;;;;;;;;;;5006470;28;20030;-62
2021/12/07 03:45:14;;;;;;;60.38;34.30;;;;;;;;;;5007172;28;20034;-63
2021/12/07 03:47:41;;;;;;;65.50;34.08;;;;;;;;;;5006509;28;20054;-62
2021/12/07 03:50:08;;;;;;;64.97;34.88;;;;;;;;;;5006700;28;20069;-63
2021/12/07 03:52:34;;;;;;;67.20;36.72;;;;;;;;;;5010249;28;20156;-63
2021/12/07 03:55:00;;;;;;;64.55;36.17;;;;;;;;;;5010586;28;20045;-63
2021/12/07 03:57:26;;;;;;;62.88;34.95;;;;;;;;;;5010506;28;20448;-63
2021/12/07 03:59:53;;;;;;;70.53;36.92;;;;;;;;;;5010314;28;20068;-63
2021/12/07 04:02:19;;;;;;;60.25;33.58;;;;;;;;;;5014255;28;20117;-62
2021/12/07 04:04:45;;;;;;;69.07;36.92;;;;;;;;;;5011431;28;20077;-63
2021/12/07 04:07:11;;;;;;;62.45;34.67;;;;;;;;;;5011192;28;20050;-63
2021/12/07 04:09:37;;;;;;;69.47;37.65;;;;;;;;;;4993743;28;20034;-62
2021/12/07 04:12:03;;;;;;;66.32;36.13;;;;;;;;;;4993457;28;20040;-63
2021/12/07 04:14:29;;;;;;;61.17;34.40;;;;;;;;;;5009893;28;20045;-63
2021/12/07 04:16:55;;;;;;;71.22;37.28;;;;;;;;;;5009994;28;20046;-62
2021/12/07 04:19:21;;;;;;;88.82;40.80;;;;;;;;;;4977129;28;20088;-62
2021/12/07 04:21:48;;;;;;;78.90;39.22;;;;;;;;;;5009682;28;20030;-61
2021/12/07 04:24:14;;;;;;;84.28;39.00;;;;;;;;;;5009372;28;20048;-63
2021/12/07 04:26:40;;;;;;;73.53;38.83;;;;;;;;;;5009590;28;20129;-63
2021/12/07 04:29:06;;;;;;;73.40;36.88;;;;;;;;;;5009758;28;20054;-63
2021/12/07 04:31:32;;;;;;;75.85;38.35;;;;;;;;;;5009983;28;20366;-63
2021/12/07 04:33:58;;;;;;;72.93;37.22;;;;;;;;;;5009656;28;20443;-63
2021/12/07 04:36:24;;;;;;;77.95;39.83;;;;;;;;;;5010852;28;20065;-62
2021/12/07 04:38:50;;;;;;;77.32;39.53;;;;;;;;;;5009648;28;20052;-63
2021/12/07 04:41:17;;;;;;;77.32;38.35;;;;;;;;;;5011496;28;20046;-62
2021/12/07 04:43:44;;;;;;;69.93;35.25;;;;;;;;;;4992890;28;20062;-62
2021/12/07 04:59:29;;;;;;;71.70;38.40;;;;;;;;;;5010416;28;20137;-62
2021/12/07 05:01:56;;;;;;;68.68;37.10;;;;;;;;;;5009284;28;20046;-61
2021/12/07 05:04:26;;;;;;;77.03;38.85;;;;;;;;;;5008806;28;20108;-61
2021/12/07 05:06:58;;;;;;;61.08;31.90;;;;;;;;;;5010318;28;20046;-62
2021/12/07 05:14:29;;;;;;;85.88;40.65;;;;;;;;;;4992691;28;20057;-61
2021/12/07 05:25:34;;;;;;;86.60;40.35;;;;;;;;;;5010871;28;20053;-62
2021/12/07 05:38:58;;;;;;;98.30;43.38;;;;;;;;;;5008442;28;20065;-62
2021/12/07 05:41:25;;;;;;;87.40;41.42;;;;;;;;;;5009166;28;20042;-62
2021/12/07 05:43:51;;;;;;;88.90;41.90;;;;;;;;;;5008458;28;20075;-62
2021/12/07 05:46:17;;;;;;;93.97;44.22;;;;;;;;;;5007945;28;20088;-62
2021/12/07 05:48:43;;;;;;;102.15;46.33;;;;;;;;;;5008027;28;20060;-62
2021/12/07 05:51:09;;;;;;;101.00;44.70;;;;;;;;;;5008638;28;20472;-62
2021/12/07 05:53:35;;;;;;;94.40;43.70;;;;;;;;;;5007972;28;20042;-62
2021/12/07 05:56:02;;;;;;;91.15;43.20;;;;;;;;;;5019006;28;20038;-63
2021/12/07 05:58:28;;;;;;;72.72;37.60;;;;;;;;;;5015179;28;20040;-62
2021/12/07 06:00:57;;;;;;;99.70;44.85;;;;;;;;;;5007944;28;20041;-62
2021/12/07 06:03:24;;;;;;;74.65;36.78;;;;;;;;;;5007713;28;20060;-61
2021/12/07 06:05:50;;;;;;;93.07;43.25;;;;;;;;;;5004981;28;20050;-62
2021/12/07 06:08:16;;;;;;;77.07;39.05;;;;;;;;;;5007694;28;20041;-62
2021/12/07 06:10:42;;;;;;;84.25;40.50;;;;;;;;;;5007847;28;20087;-62
2021/12/07 06:13:08;;;;;;;68.47;35.72;;;;;;;;;;5007278;28;20042;-62
2021/12/07 06:15:38;;;;;;;96.65;41.88;;;;;;;;;;5007483;28;20053;-62
2021/12/07 06:18:04;;;;;;;94.80;41.40;;;;;;;;;;5012739;28;20034;-62
2021/12/07 06:20:31;;;;;;;77.82;36.90;;;;;;;;;;5008659;28;20045;-62
2021/12/07 06:22:57;;;;;;;75.70;37.63;;;;;;;;;;5007379;28;20046;-62
2021/12/07 06:25:23;;;;;;;80.47;38.03;;;;;;;;;;4990833;28;20088;-61
2021/12/07 06:27:49;;;;;;;88.95;39.35;;;;;;;;;;4983100;28;20088;-62
2021/12/07 06:30:16;;;;;;;91.20;40.42;;;;;;;;;;5008915;28;20049;-61
2021/12/07 06:32:42;;;;;;;94.70;40.38;;;;;;;;;;5009866;28;20074;-61
2021/12/07 06:35:08;;;;;;;80.90;37.58;;;;;;;;;;4991443;28;20042;-62
2021/12/07 06:37:34;;;;;;;79.35;36.30;;;;;;;;;;5008236;28;20049;-62
2021/12/07 06:40:01;;;;;;;71.05;35.55;;;;;;;;;;5008941;28;20487;-61
2021/12/07 06:42:27;;;;;;;71.43;33.00;;;;;;;;;;5009903;28;20088;-61
2021/12/07 06:44:53;;;;;;;60.95;30.20;;;;;;;;;;5008233;28;20107;-60
2021/12/07 06:47:19;;;;;;;67.80;31.60;;;;;;;;;;5009087;28;20072;-60
2021/12/07 06:49:45;;;;;;;75.03;34.50;;;;;;;;;;4992084;28;20400;-60
2021/12/07 06:52:11;;;;;;;65.72;31.45;;;;;;;;;;5017343;28;20358;-61
2021/12/07 06:54:38;;;;;;;64.80;32.03;;;;;;;;;;5007355;28;20041;-61
2021/12/07 06:57:04;;;;;;;67.07;31.90;;;;;;;;;;5008800;28;20045;-62
2021/12/07 06:59:30;;;;;;;73.10;32.05;;;;;;;;;;5009164;28;20088;-61
2021/12/07 07:01:56;;;;;;;64.30;31.45;;;;;;;;;;5009095;28;20947;-61
2021/12/07 07:04:23;;;;;;;56.35;28.98;;;;;;;;;;5011159;28;20149;-60
2021/12/07 07:06:50;;;;;;;67.95;30.58;;;;;;;;;;5008833;28;20354;-60
2021/12/07 07:09:17;;;;;;;62.42;29.10;;;;;;;;;;5007817;28;20109;-60
2021/12/07 07:11:43;;;;;;;67.70;29.77;;;;;;;;;;5007558;28;20064;-60
2021/12/07 07:14:10;;;;;;;57.03;28.83;;;;;;;;;;5006864;28;20046;-60
2021/12/07 07:16:36;;;;;;;60.40;28.83;;;;;;;;;;5009306;28;20096;-61
2021/12/07 07:19:03;;;;;;;64.35;27.77;;;;;;;;;;5006393;28;20096;-61
2021/12/07 07:21:29;;;;;;;57.30;27.52;;;;;;;;;;5006550;28;20311;-61
2021/12/07 07:23:56;;;;;;;56.35;28.65;;;;;;;;;;5006489;28;20052;-60
2021/12/07 07:26:22;;;;;;;58.78;27.17;;;;;;;;;;5008584;28;20049;-61
2021/12/07 07:28:48;;;;;;;63.90;28.73;;;;;;;;;;5010379;28;20033;-61
2021/12/07 07:31:15;;;;;;;52.05;25.83;;;;;;;;;;5010514;28;20480;-61
2021/12/07 07:33:41;;;;;;;54.80;26.80;;;;;;;;;;5011940;28;20046;-62
2021/12/07 07:36:07;;;;;;;49.53;24.80;;;;;;;;;;5012068;28;20052;-62
2021/12/07 07:38:33;;;;;;;47.30;23.83;;;;;;;;;;5010169;28;20049;-62
2021/12/07 07:40:59;;;;;;;47.85;24.40;;;;;;;;;;4976352;28;20385;-62
2021/12/07 07:43:26;;;;;;;51.20;25.23;;;;;;;;;;5020971;28;20053;-61
2021/12/07 07:45:53;;;;;;;54.70;25.40;;;;;;;;;;5010093;28;20461;-62
2021/12/07 07:48:20;;;;;;;43.13;23.02;;;;;;;;;;4993021;28;20046;-62
2021/12/07 07:50:47;;;;;;;42.63;21.63;;;;;;;;;;5011229;28;20046;-62
2021/12/07 07:53:13;;;;;;;43.70;23.80;;;;;;;;;;5011402;28;20369;-62
2021/12/07 07:55:42;;;;;;;48.10;21.77;;;;;;;;;;5010682;28;20049;-62
2021/12/07 07:58:08;;;;;;;48.60;22.60;;;;;;;;;;5011396;28;20084;-62
2021/12/07 08:00:35;;;;;;;40.25;21.55;;;;;;;;;;5010279;28;20057;-62
2021/12/07 08:03:01;;;;;;;38.55;19.10;;;;;;;;;;5011267;28;20038;-63
2021/12/07 08:05:27;;;;;;;42.17;21.45;;;;;;;;;;5018591;28;20041;-62
2021/12/07 08:07:53;;;;;;;42.65;21.30;;;;;;;;;;5009602;28;20042;-62
2021/12/07 08:10:28;;;;;;;43.50;19.58;;;;;;;;;;4992462;28;20050;-62
2021/12/07 08:12:54;;;;;;;47.38;21.38;;;;;;;;;;5009779;28;20381;-62
2021/12/07 08:15:21;;;;;;;42.97;20.30;;;;;;;;;;5010465;28;20427;-62
2021/12/07 08:17:47;;;;;;;38.35;19.65;;;;;;;;;;5011642;28;20053;-60
2021/12/07 08:20:13;;;;;;;38.47;19.27;;;;;;;;;;5011120;28;20089;-60
2021/12/07 08:22:39;;;;;;;36.72;18.23;;;;;;;;;;5015075;28;20499;-60
2021/12/07 08:25:05;;;;;;;38.42;18.13;;;;;;;;;;5011702;28;20033;-61
2021/12/07 08:27:31;;;;;;;42.53;19.35;;;;;;;;;;5010294;28;20054;-60
2021/12/07 08:29:57;;;;;;;39.03;17.70;;;;;;;;;;5011463;28;20042;-61
2021/12/07 08:32:23;;;;;;;34.58;17.63;;;;;;;;;;5012058;28;20038;-62
2021/12/07 08:34:50;;;;;;;42.47;17.92;;;;;;;;;;5011160;28;20376;-60
2021/12/07 08:37:16;;;;;;;33.40;16.65;;;;;;;;;;5010643;28;20104;-60
2021/12/07 08:39:42;;;;;;;38.45;16.77;;;;;;;;;;5012334;28;20046;-59
2021/12/07 08:42:08;;;;;;;37.92;17.30;;;;;;;;;;5011598;28;20042;-59
2021/12/07 08:44:34;;;;;;;32.55;16.20;;;;;;;;;;5011958;28;20056;-60
2021/12/07 08:47:00;;;;;;;38.35;17.40;;;;;;;;;;5012280;28;20053;-60
2021/12/07 08:49:26;;;;;;;34.38;16.48;;;;;;;;;;5012283;28;20113;-59
2021/12/07 08:51:53;;;;;;;29.50;13.40;;;;;;;;;;5010772;28;20053;-60
2021/12/07 08:59:45;;;;;;;35.03;15.90;;;;;;;;;;5011138;28;20046;-60
2021/12/07 09:02:13;;;;;;;29.73;14.13;;;;;;;;;;5012095;28;20052;-60
2021/12/07 09:04:39;;;;;;;33.72;16.27;;;;;;;;;;5011604;28;20087;-61
2021/12/07 09:07:05;;;;;;;27.85;14.48;;;;;;;;;;5011329;28;20045;-61
2021/12/07 09:09:32;;;;;;;33.15;15.80;;;;;;;;;;5028204;28;20092;-61
2021/12/07 09:11:58;;;;;;;34.33;15.98;;;;;;;;;;5011694;28;20041;-61
2021/12/07 09:14:25;;;;;;;33.95;15.32;;;;;;;;;;5012903;28;20129;-61
2021/12/07 09:16:51;;;;;;;39.63;17.38;;;;;;;;;;5013316;28;20053;-61
2021/12/07 09:19:18;;;;;;;34.67;17.10;;;;;;;;;;5011664;28;20081;-61
2021/12/07 09:21:44;;;;;;;38.45;16.10;;;;;;;;;;5012200;28;20053;-61
2021/12/07 09:24:10;;;;;;;32.28;16.65;;;;;;;;;;5012159;28;20049;-61
2021/12/07 09:26:36;;;;;;;35.72;17.40;;;;;;;;;;5012122;28;20541;-61
2021/12/07 09:29:04;;;;;;;29.98;15.30;;;;;;;;;;5011588;28;20644;-61
2021/12/07 09:31:30;;;;;;;38.75;16.38;;;;;;;;;;5012196;28;20045;-61
2021/12/07 09:33:56;;;;;;;30.23;15.13;;;;;;;;;;5011999;28;20396;-61
2021/12/07 09:36:23;;;;;;;29.33;14.98;;;;;;;;;;5011717;28;20041;-61
2021/12/07 09:38:49;;;;;;;28.42;14.02;;;;;;;;;;5012012;28;20046;-61
2021/12/07 09:41:15;;;;;;;25.42;14.48;;;;;;;;;;5010033;28;20137;-61
2021/12/07 09:43:42;;;;;;;28.35;13.88;;;;;;;;;;5009987;28;20077;-60
2021/12/07 09:46:09;;;;;;;27.33;14.90;;;;;;;;;;5010660;28;20099;-60
2021/12/07 09:48:36;;;;;;;21.02;13.48;;;;;;;;;;5025381;28;20382;-60
2021/12/07 09:51:03;;;;;;;29.67;14.07;;;;;;;;;;5011017;28;20045;-60
2021/12/07 09:53:29;;;;;;;28.58;12.63;;;;;;;;;;5009692;28;20077;-60
2021/12/07 09:55:56;;;;;;;27.33;12.35;;;;;;;;;;5010754;28;20046;-60
2021/12/07 09:58:23;;;;;;;25.00;12.32;;;;;;;;;;5009425;28;20058;-60
2021/12/07 10:00:49;;;;;;;26.13;11.45;;;;;;;;;;5009615;28;20077;-60
2021/12/07 10:03:16;;;;;;;22.70;9.73;;;;;;;;;;5009633;28;20057;-62
2021/12/07 10:05:43;;;;;;;17.60;8.23;;;;;;;;;;5009509;28;20068;-62
2021/12/07 10:08:09;;;;;;;15.43;8.02;;;;;;;;;;5009346;28;20436;-62
2021/12/07 10:10:40;;;;;;;17.20;6.70;;;;;;;;;;5009404;28;20053;-62
2021/12/07 10:13:07;;;;;;;12.98;6.40;;;;;;;;;;5009418;28;20426;-62
2021/12/07 10:15:33;;;;;;;17.67;6.32;;;;;;;;;;5009106;28;20050;-62
2021/12/07 10:18:01;;;;;;;16.88;6.68;;;;;;;;;;5009005;28;20046;-62
2021/12/07 10:20:33;;;;;;;13.32;6.15;;;;;;;;;;5010478;28;20077;-62
2021/12/07 10:23:05;;;;;;;13.50;5.40;;;;;;;;;;5010817;28;20481;-61
2021/12/07 10:25:31;;;;;;;17.30;6.40;;;;;;;;;;5010428;28;20392;-61
2021/12/07 10:27:57;;;;;;;16.52;6.03;;;;;;;;;;5011606;28;20045;-61
2021/12/07 10:30:24;;;;;;;9.48;5.55;;;;;;;;;;5010664;28;20042;-61
2021/12/07 10:33:16;;;;;;;17.75;6.63;;;;;;;;;;4994107;28;20099;-61
2021/12/07 10:35:42;;;;;;;20.65;6.80;;;;;;;;;;5010077;28;20463;-62
2021/12/07 10:38:13;;;;;;;14.50;6.45;;;;;;;;;;5010246;28;20424;-61
2021/12/07 10:40:58;;;;;;;13.77;6.55;;;;;;;;;;5011464;28;20061;-62
2021/12/07 10:44:03;;;;;;;14.27;6.28;;;;;;;;;;5010452;28;20049;-61
2021/12/07 10:46:29;;;;;;;19.88;6.50;;;;;;;;;;5028232;28;20049;-61
2021/12/07 10:49:12;;;;;;;14.90;6.90;;;;;;;;;;5028239;28;20052;-61
2021/12/07 10:51:38;;;;;;;;;;;;;;;;;;5010416;28;20061;-61
2021/12/07 10:54:05;;;;;;;17.15;6.35;;;;;;;;;;5010203;28;19972;-61
2021/12/07 10:56:36;;;;;;;13.13;6.85;;;;;;;;;;5009838;28;20049;-61
2021/12/07 10:59:09;;;;;;;14.23;6.13;;;;;;;;;;5011059;28;20096;-61
2021/12/07 11:01:37;;;;;;;18.90;6.90;;;;;;;;;;5009195;28;20088;-61
2021/12/07 11:04:26;;;;;;;15.82;5.93;;;;;;;;;;5011106;28;20059;-61
2021/12/07 11:07:18;;;;;;;10.65;5.13;;;;;;;;;;4992726;28;20061;-62
2021/12/07 11:09:45;;;;;;;17.35;5.57;;;;;;;;;;5009783;28;20404;-61
2021/12/07 11:12:13;;;;;;;13.55;4.35;;;;;;;;;;5009817;28;20048;-61
2021/12/07 11:14:51;;;;;;;14.52;4.22;;;;;;;;;;5011214;28;20467;-61
2021/12/07 11:17:20;;;;;;;15.00;4.05;;;;;;;;;;5009521;28;20073;-61
2021/12/07 11:19:46;;;;;;;12.68;3.75;;;;;;;;;;5026552;28;20120;-61
2021/12/07 11:22:13;;;;;;;14.20;3.35;;;;;;;;;;5008770;28;20460;-61
2021/12/07 11:24:42;;;;;;;14.88;4.35;;;;;;;;;;5010009;28;20476;-61
2021/12/07 11:30:06;;;;;;;11.40;3.70;;;;;;;;;;5008875;28;20042;-61
2021/12/07 11:32:32;;;;;;;14.70;4.47;;;;;;;;;;5023488;28;20044;-61
2021/12/07 11:35:09;;;;;;;15.20;4.53;;;;;;;;;;5007808;28;20038;-61
2021/12/07 11:37:38;;;;;;;14.10;3.38;;;;;;;;;;5003211;28;20073;-59
2021/12/07 11:40:06;;;;;;;12.38;3.83;;;;;;;;;;5006148;28;20316;-60
2021/12/07 11:42:36;;;;;;;9.90;3.70;;;;;;;;;;5007426;28;20073;-60
2021/12/07 11:45:02;;;;;;;13.77;4.25;;;;;;;;;;5007057;28;20060;-60
2021/12/07 11:47:30;;;;;;;13.45;3.92;;;;;;;;;;5008876;28;20069;-60
2021/12/07 11:49:57;;;;;;;13.63;4.13;;;;;;;;;;5007645;28;20051;-59
2021/12/07 11:52:23;;;;;;;17.08;4.38;;;;;;;;;;5007389;28;20084;-59
2021/12/07 11:54:50;;;;;;;14.02;3.83;;;;;;;;;;5024471;28;20508;-60
2021/12/07 11:57:17;;;;;;;11.60;3.78;;;;;;;;;;5007943;28;20042;-60
2021/12/07 11:59:44;;;;;;;16.20;4.75;;;;;;;;;;5007535;28;20456;-60
2021/12/07 12:02:10;;;;;;;14.13;4.03;;;;;;;;;;5008661;28;20120;-61
2021/12/07 12:04:38;;;;;;;13.05;3.40;;;;;;;;;;5009111;28;20041;-61
2021/12/07 12:07:08;;;;;;;8.68;2.75;;;;;;;;;;5007593;28;20064;-61
2021/12/07 12:09:35;;;;;;;12.80;3.40;;;;;;;;;;5008758;28;20092;-61
2021/12/07 12:12:07;;;;;;;15.38;3.47;;;;;;;;;;5009375;28;20485;-61
2021/12/07 12:14:34;;;;;;;13.10;2.75;;;;;;;;;;5010987;28;20483;-61
2021/12/07 12:17:07;;;;;;;12.63;2.70;;;;;;;;;;5012582;28;20042;-61
2021/12/07 12:19:33;;;;;;;;;;;;;;;;;;5011130;28;20129;-60
2021/12/07 12:22:11;;;;;;;13.75;2.80;;;;;;;;;;5010509;28;20012;-61
2021/12/07 12:24:52;;;;;;;15.10;3.10;;;;;;;;;;5009021;28;20065;-62
2021/12/07 12:27:19;;;;;;;13.85;2.67;;;;;;;;;;5008781;28;20061;-61
2021/12/07 12:29:47;;;;;;;20.15;4.82;;;;;;;;;;5009340;28;20034;-61
2021/12/07 12:32:13;;;;;;;26.38;6.32;;;;;;;;;;5010200;28;20041;-61
2021/12/07 12:34:49;;;;;;;18.08;4.28;;;;;;;;;;5010905;28;20201;-62
2021/12/07 12:37:20;;;;;;;14.07;3.05;;;;;;;;;;5009525;28;20053;-61
2021/12/07 12:40:14;;;;;;;14.75;3.75;;;;;;;;;;5023120;28;20500;-61
2021/12/07 12:42:45;;;;;;;5.72;2.28;;;;;;;;;;4999124;28;20133;-62
2021/12/07 12:45:17;;;;;;;13.15;3.50;;;;;;;;;;5015830;28;20363;-61
2021/12/07 12:47:44;;;;;;;13.80;3.33;;;;;;;;;;5009331;28;20074;-62
2021/12/07 12:50:12;;;;;;;13.23;3.60;;;;;;;;;;4999851;28;20049;-61
2021/12/07 12:52:43;;;;;;;11.38;3.65;;;;;;;;;;5008833;28;20315;-61
2021/12/07 12:55:26;;;;;;;13.57;3.63;;;;;;;;;;5008577;28;20068;-61
2021/12/07 12:57:52;;;;;;;14.57;3.95;;;;;;;;;;5018636;28;20054;-61
2021/12/07 13:00:19;;;;;;;12.18;3.67;;;;;;;;;;4998872;28;20103;-61
2021/12/07 13:02:54;;;;;;;19.05;3.83;;;;;;;;;;5008379;28;20057;-62
2021/12/07 13:05:34;;;;;;;12.18;3.53;;;;;;;;;;5017251;28;20047;-61
2021/12/07 13:08:14;;;;;;;10.15;3.60;;;;;;;;;;5008821;28;20516;-62
2021/12/07 13:10:55;;;;;;;11.65;3.08;;;;;;;;;;5007956;28;20080;-61
2021/12/07 13:13:45;;;;;;;11.35;3.40;;;;;;;;;;5017287;28;20148;-61
2021/12/07 13:16:15;;;;;;;15.77;4.25;;;;;;;;;;5024078;28;20136;-61
2021/12/07 13:18:41;;;;;;;20.70;3.85;;;;;;;;;;5008323;28;20037;-61
2021/12/07 13:21:19;;;;;;;15.10;4.30;;;;;;;;;;5008379;28;20558;-61
2021/12/07 13:23:56;;;;;;;13.65;4.22;;;;;;;;;;4997917;28;20057;-61
2021/12/07 13:26:24;;;;;;;14.27;4.32;;;;;;;;;;5015325;28;20049;-61
2021/12/07 13:29:01;;;;;;;14.48;4.60;;;;;;;;;;5008219;28;20037;-61
2021/12/07 13:31:35;;;;;;;13.02;4.13;;;;;;;;;;5007652;28;20498;-61
2021/12/07 13:34:02;;;;;;;19.02;4.80;;;;;;;;;;4992862;28;20619;-61
2021/12/07 13:36:30;;;;;;;12.82;3.67;;;;;;;;;;5008939;28;20196;-61
2021/12/07 13:39:11;;;;;;;15.00;4.80;;;;;;;;;;5008580;28;20041;-61
2021/12/07 13:41:47;;;;;;;16.40;4.20;;;;;;;;;;5022217;28;20065;-61
2021/12/07 13:44:14;;;;;;;22.73;5.20;;;;;;;;;;5006582;28;20130;-61
2021/12/07 13:46:40;;;;;;;15.90;5.13;;;;;;;;;;5008207;28;20038;-62
2021/12/07 13:49:07;;;;;;;15.65;4.65;;;;;;;;;;5009390;28;20054;-61
2021/12/07 13:51:34;;;;;;;18.13;5.22;;;;;;;;;;5011543;28;20067;-61
2021/12/07 13:54:01;;;;;;;13.45;3.67;;;;;;;;;;5010732;28;20045;-61
2021/12/07 13:56:27;;;;;;;13.20;3.40;;;;;;;;;;5011115;28;20865;-61
2021/12/07 13:58:58;;;;;;;20.75;5.40;;;;;;;;;;5011478;28;20038;-60
2021/12/07 14:01:25;;;;;;;17.75;5.15;;;;;;;;;;5010461;28;20396;-61
2021/12/07 14:03:52;;;;;;;14.80;4.57;;;;;;;;;;5009549;28;20053;-60
2021/12/07 14:06:19;;;;;;;16.60;5.15;;;;;;;;;;5010134;28;20077;-60
2021/12/07 14:08:45;;;;;;;15.15;5.40;;;;;;;;;;5010810;28;20052;-60
2021/12/07 14:11:13;;;;;;;15.18;5.10;;;;;;;;;;5008559;28;20050;-61
2021/12/07 14:13:43;;;;;;;16.40;4.93;;;;;;;;;;5007402;28;20058;-61
2021/12/07 14:16:10;;;;;;;17.70;5.25;;;;;;;;;;5009406;28;20156;-61
2021/12/07 14:18:36;;;;;;;13.88;5.25;;;;;;;;;;5023943;28;20491;-61
2021/12/07 14:21:02;;;;;;;14.88;4.97;;;;;;;;;;5007411;28;20042;-60
2021/12/07 14:23:33;;;;;;;17.85;5.38;;;;;;;;;;5007862;28;20479;-61
2021/12/07 14:26:00;;;;;;;16.60;6.13;;;;;;;;;;5007692;28;20056;-60
2021/12/07 14:28:47;;;;;;;16.70;6.18;;;;;;;;;;5002139;28;20088;-60
2021/12/07 14:31:23;;;;;;;18.70;6.22;;;;;;;;;;5006578;28;20523;-61
2021/12/07 14:33:52;;;;;;;17.08;5.63;;;;;;;;;;5007627;28;20050;-61
2021/12/07 14:36:39;;;;;;;16.08;6.07;;;;;;;;;;5007830;28;20062;-60
2021/12/07 14:39:07;;;;;;;22.73;7.35;;;;;;;;;;5009715;28;20069;-60
2021/12/07 14:41:33;;;;;;;19.95;6.10;;;;;;;;;;5024553;28;20100;-60
2021/12/07 14:43:59;;;;;;;22.90;7.85;;;;;;;;;;5008223;28;20116;-60
2021/12/07 14:46:27;;;;;;;20.38;6.80;;;;;;;;;;5009311;28;20037;-61
2021/12/07 14:48:54;;;;;;;21.20;5.95;;;;;;;;;;5017734;28;20385;-61
2021/12/07 14:51:21;;;;;;;23.15;7.25;;;;;;;;;;5007909;28;20057;-61
2021/12/07 14:53:49;;;;;;;18.77;6.90;;;;;;;;;;5012203;28;20480;-61
2021/12/07 14:56:17;;;;;;;21.30;6.95;;;;;;;;;;5001936;28;20503;-61
2021/12/07 14:58:43;;;;;;;19.80;7.50;;;;;;;;;;5006556;28;20059;-61
2021/12/07 15:01:11;;;;;;;17.10;7.68;;;;;;;;;;5005937;28;20065;-61
2021/12/07 15:03:39;;;;;;;26.30;7.78;;;;;;;;;;5005877;28;20037;-61
2021/12/07 15:06:05;;;;;;;20.35;7.30;;;;;;;;;;5022522;28;20447;-62
2021/12/07 15:08:32;;;;;;;17.55;8.00;;;;;;;;;;5006964;28;20037;-61
2021/12/07 15:10:59;;;;;;;22.55;8.98;;;;;;;;;;5007673;28;20057;-62
2021/12/07 15:13:25;;;;;;;24.60;10.38;;;;;;;;;;5005631;28;20052;-62
2021/12/07 15:15:53;;;;;;;23.17;9.85;;;;;;;;;;5005796;28;20129;-62
2021/12/07 15:18:19;;;;;;;21.10;9.48;;;;;;;;;;5004954;28;20496;-62
2021/12/07 15:20:48;;;;;;;22.30;10.27;;;;;;;;;;5006410;28;20048;-62
2021/12/07 15:23:18;;;;;;;22.10;9.82;;;;;;;;;;5005897;28;20168;-62
2021/12/07 15:25:48;;;;;;;24.15;9.30;;;;;;;;;;5006593;28;20428;-61
2021/12/07 15:28:14;;;;;;;27.40;9.32;;;;;;;;;;5006387;28;20488;-62
2021/12/07 15:30:40;;;;;;;25.23;11.13;;;;;;;;;;4991528;28;20121;-61
2021/12/07 15:33:06;;;;;;;22.75;10.70;;;;;;;;;;5007890;28;20042;-61
2021/12/07 15:35:32;;;;;;;23.85;10.73;;;;;;;;;;5008613;28;20042;-61
2021/12/07 15:38:04;;;;;;;23.77;10.18;;;;;;;;;;4990274;28;20539;-62
2021/12/07 15:40:30;;;;;;;26.70;9.90;;;;;;;;;;5013577;28;20038;-62
2021/12/07 15:42:56;;;;;;;21.98;9.73;;;;;;;;;;4987762;28;20303;-62
2021/12/07 15:45:23;;;;;;;21.38;10.63;;;;;;;;;;5006232;28;20050;-61
2021/12/07 15:47:50;;;;;;;28.52;10.82;;;;;;;;;;5010275;28;20050;-61
2021/12/07 15:50:19;;;;;;;26.73;10.98;;;;;;;;;;4993468;28;20119;-61
2021/12/07 15:52:47;;;;;;;27.88;10.80;;;;;;;;;;5009700;28;20458;-61
2021/12/07 15:55:13;;;;;;;29.70;12.70;;;;;;;;;;5011200;28;20046;-61
2021/12/07 15:57:45;;;;;;;24.45;12.25;;;;;;;;;;5010391;28;20050;-60
2021/12/07 16:00:13;;;;;;;23.67;11.07;;;;;;;;;;5010944;28;20491;-60
2021/12/07 16:02:39;;;;;;;22.50;9.52;;;;;;;;;;5012859;28;20125;-61
2021/12/07 16:05:10;;;;;;;28.25;12.50;;;;;;;;;;5011882;28;20044;-60
2021/12/07 16:07:44;;;;;;;29.48;12.20;;;;;;;;;;5012510;28;20551;-60
2021/12/07 16:10:22;;;;;;;26.27;12.40;;;;;;;;;;5028800;28;20050;-61
2021/12/07 16:13:12;;;;;;;32.08;13.63;;;;;;;;;;5011139;28;20146;-61
2021/12/07 16:15:39;;;;;;;38.25;15.85;;;;;;;;;;5010958;28;20045;-61